Time;durP1;ratioP1;P1;durP2;ratioP2;P2;SDS_P1;SDS_P2;PMS_P1;PMS_P2;Temp;Humidity;BMP_temperature;BMP_pressure;BME280_temperature;BME280_humidity;BME280_pressure;Samples;Min_cycle;Max_cycle;Signal;HPM_P1;HPM_P2
2023/03/23 00:00:40;;;;;;;0.47;0.40;;;;;;;21.56;37.48;99419.22;4574373;27;20468;-57
2023/03/23 00:02:51;;;;;;;0.60;0.50;;;;;;;21.68;37.15;99444.72;4572929;27;20028;-56
2023/03/23 00:05:03;;;;;;;0.35;0.35;;;;;;;21.66;37.57;99441.41;4573152;27;20036;-56
2023/03/23 00:07:21;;;;;;;0.55;0.50;;;;;;;21.66;37.66;99441.41;4574598;27;20027;-55
2023/03/23 00:09:34;;;;;;;0.60;0.55;;;;;;;21.64;37.31;99435.28;4574388;27;20595;-56
2023/03/23 00:11:44;;;;;;;0.45;0.45;;;;;;;21.65;37.39;99428.28;4572499;27;20044;-56
2023/03/23 00:13:57;;;;;;;0.30;0.30;;;;;;;21.67;37.18;99440.19;4573466;27;20023;-56
2023/03/23 00:16:17;;;;;;;0.40;0.40;;;;;;;21.67;37.26;99437.34;4574102;27;20040;-56
2023/03/23 00:18:27;;;;;;;0.70;0.50;;;;;;;21.66;37.51;99440.59;4574415;27;20770;-56
2023/03/23 00:20:39;;;;;;;0.47;0.40;;;;;;;21.64;37.67;99432.41;4573620;27;20098;-56
2023/03/23 00:22:49;;;;;;;0.32;0.32;;;;;;;21.65;37.36;99421.72;4574961;27;20037;-56
2023/03/23 00:25:01;;;;;;;0.52;0.40;;;;;;;21.66;37.65;99429.94;4574540;27;20507;-57
2023/03/23 00:27:14;;;;;;;0.50;0.45;;;;;;;21.64;37.50;99420.91;4573365;27;20032;-56
2023/03/23 00:29:26;;;;;;;0.63;0.40;;;;;;;21.66;37.67;99423.38;4574175;27;20129;-56
2023/03/23 00:31:36;;;;;;;0.70;0.40;;;;;;;21.65;37.58;99415.97;4573405;27;20185;-56
2023/03/23 00:33:53;;;;;;;0.70;0.40;;;;;;;21.64;37.21;99415.16;4573662;27;20036;-56
2023/03/23 00:36:05;;;;;;;0.40;0.40;;;;;;;21.60;37.45;99408.56;4573778;27;20021;-56
2023/03/23 00:38:15;;;;;;;0.50;0.50;;;;;;;21.64;37.67;99415.16;4574343;27;20451;-56
2023/03/23 00:40:26;;;;;;;0.43;0.40;;;;;;;21.64;37.72;99409.44;4572374;27;20110;-56
2023/03/23 00:42:38;;;;;;;0.40;0.40;;;;;;;21.62;37.52;99411.88;4571388;27;20059;-56
2023/03/23 00:44:48;;;;;;;0.47;0.47;;;;;;;21.63;37.40;99410.63;4573983;27;20043;-56
2023/03/23 00:46:59;;;;;;;0.40;0.32;;;;;;;21.63;37.49;99413.50;4572947;27;20485;-56
2023/03/23 00:49:09;;;;;;;0.63;0.45;;;;;;;21.64;37.54;99403.69;4570604;27;20036;-56
2023/03/23 00:51:20;;;;;;;0.50;0.35;;;;;;;21.64;38.00;99409.44;4572432;27;20120;-56
2023/03/23 00:53:30;;;;;;;0.40;0.40;;;;;;;21.62;38.13;99406.13;4573985;27;20027;-57
2023/03/23 00:55:42;;;;;;;0.30;0.30;;;;;;;21.63;37.80;99402.00;4573564;27;20548;-56
2023/03/23 00:57:53;;;;;;;0.50;0.50;;;;;;;21.60;37.99;99399.94;4573443;27;20566;-56
2023/03/23 01:00:09;;;;;;;0.82;0.40;;;;;;;21.61;38.25;99404.47;4571468;27;20098;-56
2023/03/23 01:02:24;;;;;;;0.63;0.50;;;;;;;21.59;38.39;99401.19;4571872;27;20028;-56
2023/03/23 01:04:37;;;;;;;0.80;0.50;;;;;;;21.62;38.51;99399.56;4570277;27;20186;-56
2023/03/23 01:06:51;;;;;;;0.50;0.50;;;;;;;21.58;38.90;99399.53;4588152;27;20042;-56
2023/03/23 01:09:03;;;;;;;0.40;0.40;;;;;;;21.61;38.98;99395.84;4571805;27;20119;-57
2023/03/23 01:11:15;;;;;;;0.65;0.60;;;;;;;21.62;39.14;99399.56;4572612;27;20669;-56
2023/03/23 01:13:26;;;;;;;0.85;0.50;;;;;;;21.58;39.29;99382.28;4572876;27;20130;-56
2023/03/23 01:15:36;;;;;;;0.40;0.40;;;;;;;21.56;38.98;99379.03;4571124;27;20101;-56
2023/03/23 01:17:47;;;;;;;0.50;0.50;;;;;;;21.61;39.34;99384.34;4570982;27;20098;-56
2023/03/23 01:19:57;;;;;;;0.40;0.40;;;;;;;21.60;39.03;99385.59;4588158;27;20122;-56
2023/03/23 01:22:08;;;;;;;0.77;0.50;;;;;;;21.57;39.06;99377.78;4573637;27;20465;-56
2023/03/23 01:24:18;;;;;;;0.35;0.30;;;;;;;21.60;39.27;99379.03;4575544;27;20507;-57
2023/03/23 01:26:29;;;;;;;0.40;0.40;;;;;;;21.59;39.12;99378.22;4572542;27;20929;-56
2023/03/23 01:28:40;;;;;;;0.40;0.40;;;;;;;21.58;38.94;99376.56;4572396;27;20036;-56
2023/03/23 01:30:50;;;;;;;0.40;0.40;;;;;;;21.57;39.41;99368.34;4586652;27;20050;-56
2023/03/23 01:33:01;;;;;;;0.70;0.45;;;;;;;21.55;39.02;99360.13;4572150;27;20029;-56
2023/03/23 01:35:15;;;;;;;0.43;0.43;;;;;;;21.54;38.86;99352.75;4572527;27;20043;-56
2023/03/23 01:37:26;;;;;;;0.40;0.40;;;;;;;21.56;38.96;99361.81;4573298;27;20648;-57
2023/03/23 01:39:38;;;;;;;0.70;0.50;;;;;;;21.56;39.28;99364.66;4572106;27;20861;-56
2023/03/23 01:41:49;;;;;;;0.65;0.55;;;;;;;21.53;39.08;99356.84;4573829;27;20028;-56
2023/03/23 01:44:30;;;;;;;0.40;0.40;;;;;;;21.54;39.38;99357.66;4570741;27;20476;-57
2023/03/23 01:46:48;;;;;;;0.50;0.40;;;;;;;21.56;38.73;99367.53;4569959;27;20032;-56
2023/03/23 01:49:08;;;;;;;0.50;0.50;;;;;;;21.57;39.09;99374.09;4571791;27;20036;-56
2023/03/23 01:51:21;;;;;;;0.50;0.45;;;;;;;21.53;39.24;99362.59;4586635;27;20205;-56
2023/03/23 01:53:40;;;;;;;0.50;0.38;;;;;;;21.53;38.77;99362.59;4570174;27;20036;-57
2023/03/23 01:55:53;;;;;;;0.40;0.40;;;;;;;21.50;38.76;99351.91;4571871;27;20522;-57
2023/03/23 01:58:05;;;;;;;0.63;0.40;;;;;;;21.55;38.82;99374.50;4571449;27;20549;-57
2023/03/23 02:00:16;;;;;;;0.40;0.40;;;;;;;21.56;38.95;99375.31;4587066;27;20032;-57
2023/03/23 02:02:35;;;;;;;0.73;0.50;;;;;;;21.52;38.68;99366.69;4586942;27;20125;-57
2023/03/23 02:04:46;;;;;;;0.50;0.50;;;;;;;21.52;38.83;99365.84;4572413;27;20791;-57
2023/03/23 02:06:57;;;;;;;0.57;0.57;;;;;;;21.55;39.06;99371.63;4541034;27;20041;-57
2023/03/23 02:09:13;;;;;;;0.70;0.40;;;;;;;21.51;38.70;99359.31;4586834;27;20039;-57
2023/03/23 02:11:24;;;;;;;0.68;0.43;;;;;;;21.54;38.68;99363.41;4574757;27;20044;-57
2023/03/23 02:13:35;;;;;;;0.65;0.40;;;;;;;21.53;38.89;99367.53;4570892;27;20426;-56
2023/03/23 02:16:00;;;;;;;0.43;0.43;;;;;;;21.52;38.88;99372.44;4571396;27;20254;-57
2023/03/23 02:18:10;;;;;;;0.40;0.40;;;;;;;21.54;39.18;99370.00;4570167;27;20132;-57
2023/03/23 02:20:33;;;;;;;0.57;0.40;;;;;;;21.53;38.90;99374.06;4571773;27;20237;-57
2023/03/23 02:23:00;;;;;;;0.70;0.60;;;;;;;21.53;39.35;99374.06;4570653;27;20058;-57
2023/03/23 02:25:10;;;;;;;0.40;0.40;;;;;;;21.54;39.08;99372.84;4570863;27;20035;-56
2023/03/23 02:28:01;;;;;;;0.40;0.40;;;;;;;21.53;39.63;99367.53;4570260;27;20040;-57
2023/03/23 02:30:30;;;;;;;0.40;0.40;;;;;;;21.52;39.64;99366.69;4574909;27;20083;-57
2023/03/23 02:33:15;;;;;;;0.40;0.40;;;;;;;21.51;39.87;99362.19;4571400;27;21155;-57
2023/03/23 02:35:35;;;;;;;0.45;0.40;;;;;;;21.51;39.56;99365.06;4571014;27;20036;-57
2023/03/23 02:37:51;;;;;;;0.82;0.40;;;;;;;21.31;39.98;99343.63;4571317;27;20059;-57
2023/03/23 02:40:11;;;;;;;0.63;0.47;;;;;;;21.51;39.81;99382.28;4575274;27;20662;-57
2023/03/23 02:42:27;;;;;;;0.40;0.40;;;;;;;21.51;40.25;99370.78;4586626;27;20836;-56
2023/03/23 02:44:42;;;;;;;0.40;0.40;;;;;;;21.50;40.03;99374.88;4570797;27;20659;-57
2023/03/23 02:46:53;;;;;;;0.50;0.50;;;;;;;21.50;40.64;99377.75;4573234;27;20028;-57
2023/03/23 02:49:07;;;;;;;0.73;0.50;;;;;;;21.51;40.88;99387.19;4571586;27;20034;-57
2023/03/23 02:51:20;;;;;;;0.47;0.40;;;;;;;21.50;40.56;99369.13;4572378;27;20036;-57
2023/03/23 02:53:36;;;;;;;0.68;0.43;;;;;;;21.48;40.54;99360.13;4570522;27;20647;-57
2023/03/23 02:55:48;;;;;;;0.43;0.40;;;;;;;21.49;40.99;99364.63;4577175;27;20024;-57
2023/03/23 02:58:02;;;;;;;0.60;0.50;;;;;;;21.37;41.21;99315.38;4587604;27;20301;-56
2023/03/23 03:00:16;;;;;;;0.82;0.57;;;;;;;21.47;41.10;99314.59;4571764;27;20024;-58
2023/03/23 03:02:36;;;;;;;0.43;0.43;;;;;;;21.49;40.81;99307.22;4572422;27;20043;-57
2023/03/23 03:05:09;;;;;;;0.47;0.40;;;;;;;21.48;41.16;99299.84;4570431;27;20519;-57
2023/03/23 03:07:38;;;;;;;0.52;0.40;;;;;;;21.47;41.14;99301.03;4587687;27;20196;-56
2023/03/23 03:09:54;;;;;;;0.50;0.50;;;;;;;21.47;41.16;99318.25;4568813;27;20619;-57
2023/03/23 03:12:12;;;;;;;0.30;0.30;;;;;;;21.45;41.33;99309.25;4586118;27;20125;-57
2023/03/23 03:14:29;;;;;;;0.55;0.52;;;;;;;21.47;41.21;99311.72;4571603;27;20028;-57
2023/03/23 03:17:10;;;;;;;0.65;0.40;;;;;;;21.45;40.56;99322.78;4564849;27;20992;-57
2023/03/23 03:19:35;;;;;;;0.45;0.40;;;;;;;21.47;40.51;99320.34;4571746;27;20613;-56
2023/03/23 03:21:49;;;;;;;0.73;0.40;;;;;;;21.46;40.66;99299.41;4587184;27;20031;-57
2023/03/23 03:24:10;;;;;;;0.50;0.40;;;;;;;21.46;40.86;99299.41;4578733;27;20076;-57
2023/03/23 03:26:26;;;;;;;0.50;0.50;;;;;;;21.44;41.06;99293.25;4574619;27;20843;-56
2023/03/23 03:28:41;;;;;;;0.75;0.30;;;;;;;21.41;40.49;99296.91;4574109;27;20044;-57
2023/03/23 03:30:55;;;;;;;0.40;0.40;;;;;;;21.43;40.52;99285.88;4572272;27;20058;-57
2023/03/23 03:33:06;;;;;;;0.45;0.40;;;;;;;21.44;40.78;99284.63;4576908;27;20063;-57
2023/03/23 03:35:24;;;;;;;0.35;0.35;;;;;;;21.43;40.99;99279.28;4591577;27;20038;-56
2023/03/23 03:37:37;;;;;;;0.32;0.32;;;;;;;21.44;40.67;99273.16;4589110;27;20099;-56
2023/03/23 03:39:48;;;;;;;0.50;0.40;;;;;;;21.39;40.51;99258.38;4578064;27;20032;-57
2023/03/23 03:41:58;;;;;;;0.30;0.30;;;;;;;21.42;40.41;99281.34;4574432;27;20420;-58
2023/03/23 03:44:09;;;;;;;1.15;0.40;;;;;;;21.44;40.38;99267.41;4574196;27;20047;-56
2023/03/23 03:46:19;;;;;;;0.30;0.30;;;;;;;21.42;40.21;99266.19;4590093;27;20031;-57
2023/03/23 03:48:30;;;;;;;0.38;0.38;;;;;;;21.43;40.44;99264.94;4575355;27;20036;-57
2023/03/23 03:50:40;;;;;;;0.20;0.20;;;;;;;21.38;40.54;99250.97;4590243;27;20127;-58
2023/03/23 03:52:52;;;;;;;0.47;0.30;;;;;;;21.37;40.28;99253.03;4575426;27;20039;-56
2023/03/23 03:55:04;;;;;;;0.40;0.40;;;;;;;21.44;40.24;99264.53;4590630;27;20027;-57
2023/03/23 03:57:17;;;;;;;0.32;0.32;;;;;;;21.41;40.29;99242.38;4574603;27;20078;-57
2023/03/23 03:59:34;;;;;;;0.40;0.40;;;;;;;21.42;40.50;99255.50;4574532;27;20062;-58
2023/03/23 04:01:59;;;;;;;0.30;0.30;;;;;;;21.41;40.71;99262.47;4575158;27;20630;-57
2023/03/23 04:04:10;;;;;;;0.35;0.30;;;;;;;21.38;40.43;99251.81;4576546;27;20134;-57
2023/03/23 04:06:21;;;;;;;0.40;0.40;;;;;;;21.42;40.67;99251.81;4572248;27;20032;-57
2023/03/23 04:08:32;;;;;;;0.30;0.30;;;;;;;21.42;40.86;99255.50;4576529;27;20028;-57
2023/03/23 04:10:43;;;;;;;0.30;0.30;;;;;;;21.39;40.82;99255.50;4576446;27;20126;-57
2023/03/23 04:12:53;;;;;;;0.30;0.30;;;;;;;21.39;40.63;99269.88;4573741;27;20115;-57
2023/03/23 04:15:04;;;;;;;0.45;0.30;;;;;;;21.41;40.97;99285.44;4574154;27;20036;-57
2023/03/23 04:17:19;;;;;;;0.35;0.30;;;;;;;21.42;40.71;99269.84;4587185;27;20575;-56
2023/03/23 04:19:32;;;;;;;0.70;0.38;;;;;;;21.38;40.56;99269.03;4590557;27;20618;-57
2023/03/23 04:21:48;;;;;;;0.57;0.30;;;;;;;21.39;41.07;99270.66;4571452;27;20028;-57
2023/03/23 04:24:00;;;;;;;0.30;0.30;;;;;;;21.41;40.40;99284.59;4578013;27;20031;-57
2023/03/23 04:26:12;;;;;;;0.65;0.30;;;;;;;21.38;40.79;99280.50;4571528;27;20254;-57
2023/03/23 04:28:27;;;;;;;1.20;0.43;;;;;;;21.38;40.73;99274.78;4572329;27;20071;-57
2023/03/23 04:31:08;;;;;;;0.40;0.40;;;;;;;21.37;40.68;99278.88;4544452;27;20082;-57
2023/03/23 04:33:22;;;;;;;0.30;0.30;;;;;;;21.37;40.36;99281.75;4573243;27;20044;-57
2023/03/23 04:35:34;;;;;;;0.30;0.30;;;;;;;21.37;40.79;99290.38;4571776;27;20606;-58
2023/03/23 04:37:57;;;;;;;0.30;0.30;;;;;;;21.35;40.49;99275.59;4590218;27;20049;-56
2023/03/23 04:40:14;;;;;;;0.30;0.30;;;;;;;21.38;40.11;99294.03;4589865;27;20035;-57
2023/03/23 04:42:30;;;;;;;0.38;0.38;;;;;;;21.38;39.71;99292.00;4588244;27;20043;-57
2023/03/23 04:44:59;;;;;;;0.30;0.30;;;;;;;21.38;39.63;99280.50;4573755;27;20044;-57
2023/03/23 04:47:17;;;;;;;0.30;0.30;;;;;;;21.36;39.59;99282.16;4571669;27;20028;-57
2023/03/23 04:49:37;;;;;;;0.40;0.40;;;;;;;21.37;39.41;99289.53;4570195;27;20096;-57
2023/03/23 04:51:57;;;;;;;0.20;0.20;;;;;;;21.36;39.34;99287.91;4572141;27;20040;-57
2023/03/23 04:54:28;;;;;;;0.30;0.30;;;;;;;21.25;39.36;99269.81;4573318;27;20575;-57
2023/03/23 04:56:41;;;;;;;0.30;0.30;;;;;;;21.35;39.17;99289.09;4589082;27;20028;-57
2023/03/23 04:58:55;;;;;;;0.35;0.30;;;;;;;21.36;39.49;99294.44;4590796;27;20084;-58
2023/03/23 05:01:18;;;;;;;0.20;0.20;;;;;;;21.36;38.99;99308.78;4588634;27;20063;-57
2023/03/23 05:03:49;;;;;;;0.30;0.30;;;;;;;21.33;39.01;99297.28;4565980;27;20044;-57
2023/03/23 05:06:02;;;;;;;0.35;0.35;;;;;;;21.35;39.39;99298.53;4574214;27;20036;-56
2023/03/23 05:08:14;;;;;;;0.38;0.30;;;;;;;21.32;39.33;99296.50;4571964;27;20032;-58
2023/03/23 05:10:26;;;;;;;0.50;0.50;;;;;;;21.34;39.31;99296.09;4569875;27;20048;-57
2023/03/23 05:12:39;;;;;;;0.40;0.30;;;;;;;21.35;39.08;99301.41;4571716;27;20081;-57
2023/03/23 05:14:51;;;;;;;0.40;0.40;;;;;;;21.34;39.47;99296.09;4589216;27;20602;-57
2023/03/23 05:17:04;;;;;;;0.35;0.30;;;;;;;21.32;39.48;99305.09;4572585;27;20605;-57
2023/03/23 05:19:15;;;;;;;0.40;0.40;;;;;;;21.32;39.31;99305.09;4575143;27;20140;-57
2023/03/23 05:21:26;;;;;;;0.57;0.38;;;;;;;21.32;39.55;99299.34;4586710;27;20139;-58
2023/03/23 05:23:38;;;;;;;0.30;0.30;;;;;;;21.31;39.76;99297.69;4574372;27;20123;-56
2023/03/23 05:26:02;;;;;;;0.30;0.30;;;;;;;21.30;39.64;99298.09;4572339;27;20035;-56
2023/03/23 05:28:13;;;;;;;0.55;0.38;;;;;;;21.31;39.49;99288.28;4561043;27;20040;-58
2023/03/23 05:30:38;;;;;;;0.35;0.35;;;;;;;21.31;39.34;99294.81;4570151;27;20119;-57
2023/03/23 05:32:52;;;;;;;0.60;0.45;;;;;;;21.17;39.41;99271.81;4573183;27;20040;-57
2023/03/23 05:35:27;;;;;;;0.30;0.30;;;;;;;21.30;39.67;99304.66;4567113;27;20109;-57
2023/03/23 05:37:38;;;;;;;0.30;0.30;;;;;;;21.33;39.82;99300.16;4589053;27;20117;-56
2023/03/23 05:39:55;;;;;;;0.38;0.25;;;;;;;21.29;39.61;99294.44;4573122;27;20672;-57
2023/03/23 05:42:25;;;;;;;0.40;0.38;;;;;;;21.29;39.77;99288.69;4572039;27;20051;-56
2023/03/23 05:44:45;;;;;;;0.40;0.40;;;;;;;21.29;39.53;99291.56;4586727;27;20039;-57
2023/03/23 05:46:56;;;;;;;0.30;0.30;;;;;;;21.26;39.99;99289.50;4571011;27;20035;-57
2023/03/23 05:49:07;;;;;;;0.30;0.30;;;;;;;21.29;39.66;99285.81;4588013;27;20051;-56
2023/03/23 05:51:22;;;;;;;0.40;0.30;;;;;;;21.28;39.45;99298.50;4570445;27;20052;-56
2023/03/23 05:53:33;;;;;;;0.55;0.47;;;;;;;21.29;39.81;99305.91;4587495;27;20031;-57
2023/03/23 05:55:44;;;;;;;0.30;0.30;;;;;;;21.27;39.74;99296.88;4571401;27;20075;-57
2023/03/23 05:58:04;;;;;;;0.40;0.40;;;;;;;21.27;39.77;99298.91;4570035;27;20082;-57
2023/03/23 06:00:23;;;;;;;0.95;0.38;;;;;;;21.29;39.66;99313.69;4588724;27;20134;-57
2023/03/23 06:02:43;;;;;;;0.40;0.35;;;;;;;21.27;39.55;99313.25;4572750;27;20114;-56
2023/03/23 06:04:57;;;;;;;0.40;0.40;;;;;;;21.28;39.54;99327.19;4569628;27;20032;-57
2023/03/23 06:07:14;;;;;;;0.55;0.40;;;;;;;21.24;39.61;99320.63;4569568;27;20558;-57
2023/03/23 06:09:28;;;;;;;0.65;0.30;;;;;;;21.26;39.68;99334.59;4570041;27;20036;-56
2023/03/23 06:11:58;;;;;;;0.30;0.30;;;;;;;21.10;39.81;99300.47;4571112;27;20051;-57
2023/03/23 06:14:21;;;;;;;0.30;0.30;;;;;;;21.26;40.08;99318.19;4585211;27;20047;-57
2023/03/23 06:16:31;;;;;;;0.40;0.40;;;;;;;21.26;40.28;99326.81;4571189;27;20032;-57
2023/03/23 06:18:44;;;;;;;0.43;0.40;;;;;;;21.27;39.96;99334.19;4568218;27;20035;-58
2023/03/23 06:21:03;;;;;;;0.60;0.50;;;;;;;21.28;40.06;99338.69;4553801;27;20028;-61
2023/03/23 06:23:39;;;;;;;0.50;0.40;;;;;;;21.23;39.92;99329.66;4569576;27;20044;-58
2023/03/23 06:25:54;;;;;;;0.50;0.43;;;;;;;21.28;39.85;99338.69;4569844;27;20456;-58
2023/03/23 06:28:05;;;;;;;1.00;0.40;;;;;;;21.26;39.84;99331.72;4568930;27;20573;-60
2023/03/23 06:30:18;;;;;;;0.50;0.43;;;;;;;21.29;40.00;99325.16;4568312;27;20027;-57
2023/03/23 06:32:31;;;;;;;0.60;0.40;;;;;;;21.27;39.92;99330.47;4568983;27;20906;-57
2023/03/23 06:34:44;;;;;;;0.40;0.38;;;;;;;21.26;39.64;99329.69;4586481;27;20131;-57
2023/03/23 06:37:03;;;;;;;0.40;0.40;;;;;;;21.29;39.52;99334.59;4570137;27;20058;-57
2023/03/23 06:39:22;;;;;;;0.40;0.40;;;;;;;21.24;39.83;99334.97;4569125;27;20109;-56
2023/03/23 06:41:43;;;;;;;0.50;0.50;;;;;;;21.22;39.80;99331.69;4587434;27;20038;-56
2023/03/23 06:43:53;;;;;;;0.75;0.32;;;;;;;21.25;39.71;99342.34;4587700;27;20101;-56
2023/03/23 06:46:09;;;;;;;0.30;0.30;;;;;;;21.23;40.10;99336.19;4585354;27;20032;-56
2023/03/23 06:48:26;;;;;;;0.73;0.40;;;;;;;21.26;39.60;99337.44;4569434;27;20043;-59
2023/03/23 06:50:37;;;;;;;0.73;0.60;;;;;;;21.23;39.63;99335.38;4568431;27;20547;-57
2023/03/23 06:52:50;;;;;;;0.30;0.30;;;;;;;21.26;40.08;99338.28;4570737;27;20023;-57
2023/03/23 06:55:01;;;;;;;0.43;0.40;;;;;;;21.25;39.71;99338.69;4568813;27;20028;-58
2023/03/23 06:57:12;;;;;;;0.52;0.52;;;;;;;21.24;39.97;99337.84;4584852;27;20829;-57
2023/03/23 06:59:23;;;;;;;0.40;0.30;;;;;;;21.24;39.89;99337.84;4586476;27;20031;-58
2023/03/23 07:01:33;;;;;;;0.40;0.40;;;;;;;21.26;40.09;99346.06;4569279;27;20039;-58
2023/03/23 07:03:45;;;;;;;0.98;0.43;;;;;;;21.23;40.11;99341.94;4569303;27;20032;-58
2023/03/23 07:05:59;;;;;;;0.75;0.50;;;;;;;21.24;40.01;99360.81;4556263;27;20040;-57
2023/03/23 07:08:11;;;;;;;0.45;0.38;;;;;;;21.22;40.04;99350.94;4569853;27;20039;-58
2023/03/23 07:10:34;;;;;;;0.40;0.40;;;;;;;21.23;39.95;99350.53;4568228;27;20082;-58
2023/03/23 07:12:46;;;;;;;0.30;0.30;;;;;;;21.23;39.86;99347.66;4551846;27;20630;-59
2023/03/23 07:14:56;;;;;;;0.50;0.50;;;;;;;21.22;40.10;99357.50;4568173;27;20102;-58
2023/03/23 07:17:07;;;;;;;0.50;0.47;;;;;;;21.20;39.92;99357.09;4568825;27;20143;-58
2023/03/23 07:19:21;;;;;;;0.90;0.43;;;;;;;21.26;40.10;99357.53;4574841;27;20098;-58
2023/03/23 07:21:32;;;;;;;1.00;0.45;;;;;;;21.24;40.57;99355.06;4569503;27;20031;-58
2023/03/23 07:23:42;;;;;;;0.40;0.40;;;;;;;21.25;40.24;99361.66;4585224;27;20153;-58
2023/03/23 07:25:56;;;;;;;0.40;0.40;;;;;;;21.18;40.41;99350.94;4568467;27;20032;-57
2023/03/23 07:28:11;;;;;;;0.77;0.47;;;;;;;21.25;40.72;99350.16;4569549;27;20112;-56
2023/03/23 07:30:22;;;;;;;0.32;0.32;;;;;;;21.23;40.51;99358.34;4584675;27;20032;-57
2023/03/23 07:32:32;;;;;;;0.73;0.60;;;;;;;21.18;40.57;99356.69;4586733;27;20043;-57
2023/03/23 07:34:43;;;;;;;0.80;0.50;;;;;;;21.22;40.59;99360.38;4586480;27;20041;-57
2023/03/23 07:37:01;;;;;;;0.57;0.50;;;;;;;21.25;40.60;99362.44;4585691;27;20036;-56
2023/03/23 07:39:13;;;;;;;0.63;0.50;;;;;;;21.18;40.29;99356.69;4574116;27;20025;-55
2023/03/23 07:41:24;;;;;;;0.40;0.40;;;;;;;21.22;40.71;99369.00;4570390;27;20016;-57
2023/03/23 07:43:36;;;;;;;0.73;0.45;;;;;;;21.20;40.24;99365.69;4586558;27;20514;-57
2023/03/23 07:46:05;;;;;;;0.50;0.40;;;;;;;21.21;40.10;99364.50;4570267;27;20028;-57
2023/03/23 07:48:30;;;;;;;0.68;0.50;;;;;;;21.23;40.03;99358.34;4568644;27;20783;-56
2023/03/23 07:50:41;;;;;;;1.27;0.60;;;;;;;21.09;40.01;99344.72;4570587;27;20035;-57
2023/03/23 07:52:57;;;;;;;0.60;0.40;;;;;;;21.24;39.70;99374.31;4567969;27;20121;-57
2023/03/23 07:55:17;;;;;;;0.77;0.50;;;;;;;21.22;40.05;99366.13;4568162;27;20831;-56
2023/03/23 07:57:49;;;;;;;0.65;0.50;;;;;;;21.21;40.19;99370.22;4567836;27;20032;-57
2023/03/23 08:00:00;;;;;;;0.57;0.47;;;;;;;21.19;39.73;99361.19;4585435;27;20063;-57
2023/03/23 08:02:13;;;;;;;0.60;0.50;;;;;;;21.22;39.77;99363.25;4570150;27;20685;-56
2023/03/23 08:04:47;;;;;;;0.90;0.47;;;;;;;21.21;39.58;99367.34;4566087;27;20097;-58
2023/03/23 08:07:21;;;;;;;0.50;0.50;;;;;;;21.18;39.46;99368.16;4559317;27;20511;-57
2023/03/23 08:10:01;;;;;;;1.05;0.50;;;;;;;21.21;39.74;99373.09;4550068;27;20047;-57
2023/03/23 08:12:53;;;;;;;0.95;0.40;;;;;;;21.23;39.83;99376.38;4567514;27;20082;-57
2023/03/23 08:15:37;;;;;;;0.82;0.40;;;;;;;21.20;39.87;99376.38;4564264;27;20587;-56
2023/03/23 08:17:51;;;;;;;0.65;0.40;;;;;;;21.20;39.73;99377.16;4572762;27;20054;-58
2023/03/23 08:20:25;;;;;;;0.73;0.45;;;;;;;21.21;39.52;99381.72;4572593;27;20038;-57
2023/03/23 08:22:53;;;;;;;0.63;0.50;;;;;;;21.22;39.53;99382.50;4572052;27;20578;-57
2023/03/23 08:25:27;;;;;;;0.93;0.70;;;;;;;21.22;39.85;99391.94;4578748;27;20090;-57
2023/03/23 08:28:05;;;;;;;0.50;0.40;;;;;;;21.15;39.45;99383.31;4573315;27;20043;-57
2023/03/23 08:30:39;;;;;;;0.70;0.50;;;;;;;21.22;39.50;99386.22;4572997;27;20436;-57
2023/03/23 08:33:11;;;;;;;0.75;0.60;;;;;;;21.20;39.71;99382.91;4568997;27;20036;-56
2023/03/23 08:35:56;;;;;;;0.40;0.40;;;;;;;21.19;39.45;99374.69;4524560;28;20631;-57
2023/03/23 08:38:37;;;;;;;0.40;0.40;;;;;;;21.21;39.67;99378.00;4561973;27;20143;-57
2023/03/23 08:40:48;;;;;;;0.57;0.40;;;;;;;21.21;39.23;99387.44;4571048;27;20032;-56
2023/03/23 08:43:23;;;;;;;0.80;0.50;;;;;;;21.19;39.24;99380.44;4571477;27;20579;-57
2023/03/23 08:45:53;;;;;;;0.60;0.60;;;;;;;21.03;39.23;99351.22;4574841;27;20044;-57
2023/03/23 08:48:24;;;;;;;0.40;0.40;;;;;;;21.22;39.50;99386.22;4575269;27;21746;-57
2023/03/23 08:51:06;;;;;;;0.93;0.50;;;;;;;21.22;39.74;99383.34;4574018;27;20136;-57
2023/03/23 08:53:31;;;;;;;0.50;0.50;;;;;;;21.15;39.48;99374.69;4570566;27;20036;-57
2023/03/23 08:56:12;;;;;;;0.75;0.50;;;;;;;21.20;39.24;99379.25;4550922;27;20051;-57
2023/03/23 08:58:54;;;;;;;0.60;0.50;;;;;;;21.21;39.36;99396.06;4551939;27;20118;-57
2023/03/23 09:01:16;;;;;;;0.52;0.40;;;;;;;21.16;39.36;99384.94;4587995;27;20036;-56
2023/03/23 09:03:27;;;;;;;0.73;0.50;;;;;;;21.16;39.46;99379.22;4572750;27;20484;-56
2023/03/23 09:05:50;;;;;;;0.63;0.40;;;;;;;21.21;39.38;99381.72;4589154;27;20604;-57
2023/03/23 09:08:07;;;;;;;0.53;0.40;;;;;;;21.22;39.43;99388.25;4572259;27;20113;-57
2023/03/23 09:10:19;;;;;;;0.50;0.50;;;;;;;21.19;39.51;99389.88;4571640;27;20094;-57
2023/03/23 09:12:29;;;;;;;0.65;0.40;;;;;;;21.19;39.37;99381.28;4571575;27;20138;-58
2023/03/23 09:14:40;;;;;;;0.55;0.40;;;;;;;21.16;39.23;99378.38;4574087;27;20050;-56
2023/03/23 09:16:51;;;;;;;0.38;0.32;;;;;;;21.20;39.13;99388.66;4570998;27;20055;-57
2023/03/23 09:19:02;;;;;;;0.73;0.40;;;;;;;21.21;39.01;99406.69;4573378;27;20031;-57
2023/03/23 09:21:13;;;;;;;0.30;0.30;;;;;;;21.21;38.88;99401.78;4571877;27;20685;-57
2023/03/23 09:23:24;;;;;;;0.40;0.40;;;;;;;21.20;38.73;99403.00;4571629;27;20702;-56
2023/03/23 09:25:35;;;;;;;1.25;0.40;;;;;;;21.21;39.06;99404.66;4572373;27;20016;-56
2023/03/23 09:27:49;;;;;;;0.65;0.43;;;;;;;21.18;38.95;99411.22;4571519;27;20024;-57
2023/03/23 09:30:00;;;;;;;0.40;0.40;;;;;;;21.20;39.04;99411.59;4570638;27;20043;-56
2023/03/23 09:32:13;;;;;;;0.85;0.50;;;;;;;21.20;38.97;99413.66;4574384;27;20032;-57
2023/03/23 09:34:23;;;;;;;0.40;0.40;;;;;;;21.15;38.97;99414.88;4573237;27;20047;-56
2023/03/23 09:36:34;;;;;;;0.50;0.50;;;;;;;21.15;38.72;99417.75;4571316;27;20194;-57
2023/03/23 09:38:45;;;;;;;0.40;0.40;;;;;;;21.19;38.67;99426.34;4572221;27;20040;-57
2023/03/23 09:41:24;;;;;;;0.65;0.47;;;;;;;21.22;38.69;99440.72;4570920;27;20127;-57
2023/03/23 09:43:46;;;;;;;0.32;0.30;;;;;;;21.22;38.53;99437.88;4571766;27;20040;-57
2023/03/23 09:46:09;;;;;;;0.52;0.40;;;;;;;21.08;38.55;99419.72;4570780;27;20756;-56
2023/03/23 09:48:37;;;;;;;0.32;0.32;;;;;;;21.23;38.26;99435.81;4586065;27;20042;-57
2023/03/23 09:50:56;;;;;;;0.45;0.40;;;;;;;21.23;38.27;99441.56;4570449;27;20051;-57
2023/03/23 09:53:24;;;;;;;0.57;0.40;;;;;;;21.19;38.62;99430.06;4569979;27;20031;-57
2023/03/23 09:55:35;;;;;;;0.93;0.38;;;;;;;21.22;38.50;99440.72;4571065;27;20182;-56
2023/03/23 09:58:02;;;;;;;0.40;0.40;;;;;;;21.22;38.06;99437.88;4571397;27;20036;-57
2023/03/23 10:00:20;;;;;;;1.02;0.60;;;;;;;21.23;38.55;99439.50;4571394;27;20028;-56
2023/03/23 10:02:34;;;;;;;0.77;0.43;;;;;;;21.25;38.29;99436.25;4574380;27;20070;-56
2023/03/23 10:04:50;;;;;;;0.75;0.50;;;;;;;21.24;37.99;99441.16;4570846;27;20039;-57
2023/03/23 10:07:11;;;;;;;0.47;0.40;;;;;;;21.25;38.31;99448.53;4587512;27;20039;-56
2023/03/23 10:09:21;;;;;;;0.82;0.43;;;;;;;21.24;37.70;99452.66;4572301;27;20113;-55
2023/03/23 10:11:56;;;;;;;0.85;0.50;;;;;;;21.26;37.78;99443.63;4571400;27;20066;-58
2023/03/23 10:14:30;;;;;;;0.40;0.40;;;;;;;21.26;37.45;99452.25;4576099;27;20478;-56
2023/03/23 10:16:52;;;;;;;0.60;0.50;;;;;;;21.25;37.86;99439.94;4571937;27;20630;-56
2023/03/23 10:19:35;;;;;;;0.90;0.50;;;;;;;21.26;37.51;99435.84;4570945;27;20027;-56
2023/03/23 10:21:55;;;;;;;0.40;0.40;;;;;;;21.21;37.51;99433.34;4570338;27;20039;-56
2023/03/23 10:24:13;;;;;;;0.70;0.40;;;;;;;21.26;37.73;99438.72;4570964;27;20068;-57
2023/03/23 10:26:54;;;;;;;0.70;0.50;;;;;;;21.27;37.67;99428.06;4573306;27;20150;-57
2023/03/23 10:29:21;;;;;;;0.77;0.60;;;;;;;21.27;38.10;99434.63;4572732;27;20039;-57
2023/03/23 10:31:37;;;;;;;0.82;0.50;;;;;;;21.28;38.28;99435.47;4586296;27;20181;-57
2023/03/23 10:33:50;;;;;;;1.50;0.80;;;;;;;21.23;37.99;99439.50;4573584;27;20274;-57
2023/03/23 10:36:14;;;;;;;0.70;0.57;;;;;;;21.26;38.16;99438.72;4573985;27;20036;-57
2023/03/23 10:38:31;;;;;;;0.65;0.47;;;;;;;21.27;37.83;99428.06;4572434;27;20059;-59
2023/03/23 10:40:48;;;;;;;;;;;;;;;21.28;37.79;99424.78;4587626;27;20028;-61
2023/03/23 10:42:58;;;;;;;1.05;0.50;;;;;;;21.28;37.55;99433.38;4573262;27;19989;-57
2023/03/23 10:45:17;;;;;;;0.40;0.40;;;;;;;21.28;37.94;99429.72;4569721;27;20165;-56
2023/03/23 10:47:28;;;;;;;0.85;0.50;;;;;;;21.23;37.95;99430.88;4571488;27;20085;-57